Time;durP1;ratioP1;P1;durP2;ratioP2;P2;SDS_P1;SDS_P2;PMS_P1;PMS_P2;Temp;Humidity;BMP_temperature;BMP_pressure;BME280_temperature;BME280_humidity;BME280_pressure;Samples;Min_cycle;Max_cycle;Signal;HPM_P1;HPM_P2
2024/01/25 00:02:12;;;;;;;11.70;3.43;;;;;;;11.31;87.46;99263.94;4251310;27;20647;-84
2024/01/25 00:04:36;;;;;;;15.67;3.47;;;;;;;11.33;85.50;99262.06;4236282;27;20669;-84
2024/01/25 00:06:59;;;;;;;15.30;4.03;;;;;;;11.32;85.37;99250.78;4251925;27;20648;-84
2024/01/25 00:09:23;;;;;;;12.57;3.50;;;;;;;11.33;85.98;99249.00;4232443;27;20660;-84
2024/01/25 00:11:46;;;;;;;12.77;3.07;;;;;;;11.31;86.66;99249.09;4241098;27;20631;-84
2024/01/25 00:14:09;;;;;;;12.77;2.90;;;;;;;11.31;85.33;99254.31;4254286;27;20593;-84
2024/01/25 00:16:34;;;;;;;14.80;3.17;;;;;;;11.27;87.46;99251.94;4248408;27;20625;-84
2024/01/25 00:18:57;;;;;;;9.97;3.00;;;;;;;11.24;85.85;99240.81;4239547;27;20711;-84
2024/01/25 00:21:21;;;;;;;13.13;4.03;;;;;;;11.26;87.32;99245.06;4246579;27;21219;-84
2024/01/25 00:23:44;;;;;;;15.87;4.83;;;;;;;11.27;87.44;99242.38;4252435;27;20623;-84
2024/01/25 00:26:07;;;;;;;15.90;3.20;;;;;;;11.25;87.32;99245.97;4251453;27;20604;-84
2024/01/25 00:28:30;;;;;;;11.67;3.03;;;;;;;11.28;86.20;99253.63;4229839;27;21001;-84
2024/01/25 00:30:54;;;;;;;12.30;3.10;;;;;;;11.27;87.30;99242.38;4250068;27;20611;-84
2024/01/25 00:33:19;;;;;;;15.07;3.23;;;;;;;11.25;86.66;99248.56;4232739;27;20640;-84
2024/01/25 00:35:43;;;;;;;14.97;2.93;;;;;;;11.21;86.71;99247.03;4253932;27;20679;-85
2024/01/25 00:38:07;;;;;;;15.30;3.00;;;;;;;11.21;87.28;99246.22;4240472;27;20616;-84
2024/01/25 00:40:14;;;;;;;15.53;2.33;;;;;;;11.22;87.08;99245.28;4236187;27;20608;-84
2024/01/25 00:42:23;;;;;;;16.83;4.47;;;;;;;11.24;87.52;99244.28;4237752;27;20628;-84
2024/01/25 00:44:45;;;;;;;10.97;3.40;;;;;;;11.26;86.76;99242.44;4237856;27;20626;-84
2024/01/25 00:46:55;;;;;;;14.87;3.60;;;;;;;11.28;86.73;99240.59;4239278;27;20659;-84
2024/01/25 00:49:21;;;;;;;15.37;3.20;;;;;;;11.30;87.01;99236.13;4242811;27;20605;-85
2024/01/25 00:51:33;;;;;;;20.70;5.40;;;;;;;11.30;86.91;99230.88;4237269;27;20633;-84
2024/01/25 00:53:46;;;;;;;16.73;3.77;;;;;;;11.30;86.81;99230.88;4254660;27;20651;-83
2024/01/25 00:55:53;;;;;;;15.23;3.30;;;;;;;11.29;86.47;99231.84;4238678;27;21060;-84
2024/01/25 00:58:02;;;;;;;11.40;3.33;;;;;;;11.32;86.33;99226.41;4251932;27;20743;-85
2024/01/25 01:00:21;;;;;;;14.67;4.27;;;;;;;11.30;86.14;99225.66;4221827;27;20630;-84
2024/01/25 01:02:45;;;;;;;13.07;3.67;;;;;;;11.32;86.19;99226.41;4237896;27;20633;-84
2024/01/25 01:05:07;;;;;;;14.90;4.23;;;;;;;11.33;87.31;99225.50;4225854;27;20653;-84
2024/01/25 01:07:31;;;;;;;12.60;3.47;;;;;;;11.32;87.13;99215.97;4233392;27;20637;-84
2024/01/25 01:09:54;;;;;;;16.47;3.93;;;;;;;11.34;87.72;99233.25;4229000;27;20704;-84
2024/01/25 01:12:17;;;;;;;17.40;3.60;;;;;;;11.34;86.98;99229.81;4240915;27;20641;-84
2024/01/25 01:14:41;;;;;;;10.20;2.90;;;;;;;11.29;87.44;99218.78;4254035;27;20600;-84
2024/01/25 01:17:04;;;;;;;14.80;3.60;;;;;;;11.29;87.34;99224.00;4242776;27;20618;-85
2024/01/25 01:19:12;;;;;;;15.90;3.40;;;;;;;11.30;88.01;99225.66;4242343;27;20683;-84
2024/01/25 01:21:38;;;;;;;16.10;3.30;;;;;;;11.33;87.57;99234.16;4249920;27;20644;-84
2024/01/25 01:24:01;;;;;;;13.87;3.37;;;;;;;11.34;87.90;99229.81;4231854;27;21226;-84
2024/01/25 01:26:25;;;;;;;16.27;3.20;;;;;;;11.35;86.57;99227.13;4258046;27;20626;-84
2024/01/25 01:28:48;;;;;;;13.70;3.23;;;;;;;11.35;86.34;99234.97;4244360;27;20638;-84
2024/01/25 01:31:12;;;;;;;13.17;3.67;;;;;;;11.32;88.19;99237.72;4228207;27;20689;-84
2024/01/25 01:33:36;;;;;;;13.27;3.20;;;;;;;11.33;87.31;99235.94;4249554;27;20656;-84
2024/01/25 01:35:59;;;;;;;16.47;3.10;;;;;;;11.35;88.13;99244.53;4244669;27;20686;-84
2024/01/25 01:38:24;;;;;;;12.87;3.67;;;;;;;11.38;86.79;99240.00;4244442;27;20629;-84
2024/01/25 01:40:47;;;;;;;15.80;4.10;;;;;;;11.35;87.67;99247.16;4229707;27;20747;-84
2024/01/25 01:43:19;;;;;;;11.90;3.00;;;;;;;11.35;88.04;99249.75;4255396;27;21143;-84
2024/01/25 01:45:42;;;;;;;14.70;4.17;;;;;;;11.32;86.72;99255.16;4230110;27;20606;-84
2024/01/25 01:48:06;;;;;;;13.60;3.70;;;;;;;11.31;88.30;99259.53;4254280;27;21232;-84
2024/01/25 01:50:29;;;;;;;16.13;4.33;;;;;;;11.33;88.13;99251.63;4247010;27;21098;-84
2024/01/25 01:52:53;;;;;;;13.17;3.23;;;;;;;11.34;88.08;99250.72;4244176;27;21282;-84
2024/01/25 01:55:18;;;;;;;18.80;3.57;;;;;;;11.34;87.81;99242.88;4230247;27;21431;-84
2024/01/25 01:57:42;;;;;;;14.57;3.13;;;;;;;11.36;86.93;99238.41;4242660;27;20597;-84
2024/01/25 02:00:09;;;;;;;14.77;2.77;;;;;;;11.38;87.84;99236.53;4229324;27;21162;-84
2024/01/25 02:02:35;;;;;;;17.17;3.93;;;;;;;11.37;87.40;99233.09;4242485;27;20648;-84
2024/01/25 02:04:58;;;;;;;9.60;2.80;;;;;;;11.36;87.16;99238.41;4230495;27;21371;-84
2024/01/25 02:07:21;;;;;;;16.57;2.90;;;;;;;11.37;87.03;99245.31;4252689;27;21157;-84
2024/01/25 02:09:45;;;;;;;18.73;3.83;;;;;;;11.38;88.34;99244.38;4232222;27;20609;-85
2024/01/25 02:12:10;;;;;;;13.10;3.70;;;;;;;11.41;86.75;99239.00;4231223;27;20730;-84
2024/01/25 02:14:33;;;;;;;11.50;2.67;;;;;;;11.41;87.32;99236.38;4243892;27;20629;-84
2024/01/25 02:16:57;;;;;;;15.40;3.93;;;;;;;11.39;87.14;99226.00;4229397;27;20605;-84
2024/01/25 02:19:20;;;;;;;16.20;3.77;;;;;;;11.38;87.13;99229.56;4253965;27;20608;-84
2024/01/25 02:21:43;;;;;;;11.10;3.07;;;;;;;11.41;87.01;99231.16;4243520;27;20751;-84
2024/01/25 02:24:08;;;;;;;13.00;3.40;;;;;;;11.42;86.79;99240.69;4252684;27;20596;-84
2024/01/25 02:26:32;;;;;;;12.47;3.60;;;;;;;11.39;85.64;99235.63;4244883;27;20604;-84
2024/01/25 02:28:55;;;;;;;8.50;2.90;;;;;;;11.37;86.83;99232.25;4227581;27;20658;-84
2024/01/25 02:31:19;;;;;;;13.23;4.13;;;;;;;11.37;85.81;99227.03;4244386;27;20598;-84
2024/01/25 02:33:43;;;;;;;19.27;3.70;;;;;;;11.34;85.50;99232.44;4239065;27;21299;-84
2024/01/25 02:36:07;;;;;;;14.20;3.57;;;;;;;11.33;86.05;99230.72;4238680;27;20723;-84
2024/01/25 02:38:30;;;;;;;11.27;3.50;;;;;;;11.34;86.26;99233.25;4246509;27;20605;-84
2024/01/25 02:40:55;;;;;;;17.10;3.53;;;;;;;11.34;85.25;99248.94;4241696;27;20613;-84
2024/01/25 02:43:18;;;;;;;13.77;3.90;;;;;;;11.31;86.41;99243.88;4232674;27;20610;-84
2024/01/25 02:45:42;;;;;;;9.33;3.10;;;;;;;11.31;85.08;99248.25;4254435;27;20614;-84
2024/01/25 02:48:05;;;;;;;16.27;3.90;;;;;;;11.31;85.20;99248.25;4239467;27;21189;-84
2024/01/25 02:50:29;;;;;;;15.87;3.10;;;;;;;11.31;85.98;99253.47;4241268;27;21244;-84
2024/01/25 02:52:53;;;;;;;12.40;3.43;;;;;;;11.32;84.82;99248.19;4238841;27;20605;-84
2024/01/25 02:55:19;;;;;;;13.70;3.60;;;;;;;11.30;86.24;99243.94;4242167;27;20699;-84
2024/01/25 02:57:44;;;;;;;16.13;3.80;;;;;;;11.29;84.92;99245.72;4238846;27;20696;-84
2024/01/25 03:00:09;;;;;;;11.73;3.70;;;;;;;11.26;84.46;99239.84;4221201;27;20672;-84
2024/01/25 03:02:32;;;;;;;16.37;3.37;;;;;;;11.27;86.03;99241.50;4230012;27;20606;-84
2024/01/25 03:04:55;;;;;;;11.40;2.93;;;;;;;11.31;84.60;99240.44;4244100;27;20630;-84
2024/01/25 03:07:19;;;;;;;12.00;3.07;;;;;;;11.28;86.12;99238.81;4244333;27;20626;-84
2024/01/25 03:09:42;;;;;;;18.17;6.30;;;;;;;11.29;84.52;99242.28;4226419;27;20650;-84
2024/01/25 03:12:07;;;;;;;9.00;3.30;;;;;;;11.29;84.59;99245.72;4242970;27;21069;-84
2024/01/25 03:14:31;;;;;;;23.47;4.00;;;;;;;11.24;85.19;99246.03;4251037;27;20601;-84
2024/01/25 03:16:54;;;;;;;12.77;3.13;;;;;;;11.23;84.35;99239.13;4244403;27;20656;-84
2024/01/25 03:19:19;;;;;;;20.30;3.30;;;;;;;11.18;85.22;99225.47;4251948;27;20631;-84
2024/01/25 03:21:42;;;;;;;18.37;3.87;;;;;;;11.19;86.34;99230.63;4256353;27;20637;-84
2024/01/25 03:24:06;;;;;;;15.30;3.57;;;;;;;11.18;84.81;99241.97;4238835;27;20616;-85
2024/01/25 03:26:30;;;;;;;13.60;4.40;;;;;;;11.17;84.84;99237.69;4241704;27;20736;-84
2024/01/25 03:28:53;;;;;;;11.30;3.30;;;;;;;11.16;86.19;99230.78;4254063;27;20705;-84
2024/01/25 03:31:17;;;;;;;15.33;3.47;;;;;;;11.17;84.97;99227.25;4242307;27;20621;-84
2024/01/25 03:33:41;;;;;;;11.83;3.23;;;;;;;11.15;86.84;99231.69;4222469;27;20699;-84
2024/01/25 03:36:05;;;;;;;13.50;3.47;;;;;;;11.13;85.94;99241.38;4222419;27;20746;-84
2024/01/25 03:38:28;;;;;;;14.03;4.10;;;;;;;11.11;86.36;99244.97;4239885;27;20601;-84
2024/01/25 03:40:51;;;;;;;10.07;3.10;;;;;;;11.11;85.83;99248.47;4238438;27;20725;-84
2024/01/25 03:43:15;;;;;;;13.97;3.30;;;;;;;11.07;86.47;99246.91;4248154;27;21067;-84
2024/01/25 03:45:46;;;;;;;17.43;3.70;;;;;;;11.07;86.79;99246.91;4241618;27;20605;-84
2024/01/25 03:48:11;;;;;;;11.70;3.27;;;;;;;11.06;85.11;99258.28;4257857;27;21019;-84
2024/01/25 03:50:34;;;;;;;13.20;3.20;;;;;;;11.07;86.58;99257.38;4237880;27;21004;-84
2024/01/25 03:52:58;;;;;;;17.00;3.73;;;;;;;11.08;85.82;99264.28;4238525;27;20641;-84
2024/01/25 03:55:21;;;;;;;16.93;4.50;;;;;;;11.07;85.78;99265.19;4253625;27;20660;-84
2024/01/25 03:57:45;;;;;;;14.40;3.30;;;;;;;11.03;85.16;99263.66;4223874;27;20626;-84
2024/01/25 04:00:09;;;;;;;13.93;3.40;;;;;;;11.04;85.85;99270.56;4240015;27;20743;-84
2024/01/25 04:02:34;;;;;;;11.90;3.13;;;;;;;11.06;85.78;99268.72;4254251;27;20608;-84
2024/01/25 04:04:58;;;;;;;16.73;4.00;;;;;;;11.05;85.60;99269.66;4246327;27;21170;-84
2024/01/25 04:07:21;;;;;;;10.87;3.80;;;;;;;11.06;86.51;99270.50;4252822;27;21245;-84
2024/01/25 04:09:45;;;;;;;15.43;3.50;;;;;;;11.07;85.91;99274.81;4241585;27;21485;-84
2024/01/25 04:12:08;;;;;;;12.87;4.17;;;;;;;11.07;84.90;99280.84;4260497;27;20605;-84
2024/01/25 04:14:31;;;;;;;9.40;3.77;;;;;;;11.07;85.31;99282.63;4225017;27;20655;-84
2024/01/25 04:16:55;;;;;;;13.53;3.67;;;;;;;11.10;84.93;99283.31;4240288;27;20662;-84
2024/01/25 04:19:18;;;;;;;16.03;3.70;;;;;;;11.10;85.40;99283.31;4238525;27;20608;-84
2024/01/25 04:21:43;;;;;;;13.43;3.70;;;;;;;11.06;86.01;99294.81;4256821;27;20656;-84
2024/01/25 04:24:06;;;;;;;10.20;2.70;;;;;;;11.05;84.94;99297.50;4238233;27;21177;-84
2024/01/25 04:26:29;;;;;;;11.57;2.60;;;;;;;11.06;86.52;99305.25;4249585;27;20708;-84
2024/01/25 04:28:52;;;;;;;14.30;3.53;;;;;;;11.07;86.40;99306.13;4247800;27;20659;-83
2024/01/25 04:31:15;;;;;;;15.57;3.90;;;;;;;11.07;85.07;99308.75;4245030;27;21168;-84
2024/01/25 04:33:39;;;;;;;10.03;2.60;;;;;;;11.11;85.75;99302.41;4239168;27;20609;-84
2024/01/25 04:36:08;;;;;;;11.80;3.37;;;;;;;11.14;86.60;99303.13;4257690;27;20644;-84
2024/01/25 04:38:32;;;;;;;17.13;4.07;;;;;;;11.15;85.67;99306.56;4229480;27;20612;-84
2024/01/25 04:40:55;;;;;;;8.67;3.00;;;;;;;11.16;84.73;99309.09;4242973;27;20624;-83
2024/01/25 04:43:18;;;;;;;11.53;3.53;;;;;;;11.19;85.78;99310.72;4249659;27;20624;-84
2024/01/25 04:45:42;;;;;;;14.03;3.83;;;;;;;11.19;84.22;99311.56;4240559;27;21073;-84
2024/01/25 04:48:06;;;;;;;14.60;4.20;;;;;;;11.17;84.50;99305.59;4239621;27;20988;-83
2024/01/25 04:50:30;;;;;;;14.50;3.20;;;;;;;11.16;85.02;99310.88;4239674;27;21039;-84
2024/01/25 04:52:54;;;;;;;17.67;3.80;;;;;;;11.13;85.16;99311.88;4242240;27;20648;-83
2024/01/25 04:55:19;;;;;;;13.20;3.70;;;;;;;11.11;84.05;99308.50;4258153;27;20659;-84
2024/01/25 04:57:43;;;;;;;15.00;3.30;;;;;;;11.08;85.57;99310.41;4256340;27;21814;-84
2024/01/25 05:00:08;;;;;;;15.60;4.20;;;;;;;11.05;84.51;99316.66;4252659;27;21038;-84
2024/01/25 05:02:31;;;;;;;11.80;3.10;;;;;;;11.02;84.73;99323.78;4244863;27;21234;-84
2024/01/25 05:04:54;;;;;;;17.53;3.43;;;;;;;10.99;84.41;99326.53;4251920;27;20666;-83
2024/01/25 05:07:18;;;;;;;14.20;3.03;;;;;;;10.96;85.72;99330.16;4236502;27;20700;-84
2024/01/25 05:09:41;;;;;;;11.53;4.00;;;;;;;10.97;84.72;99339.66;4229339;27;20642;-84
2024/01/25 05:12:06;;;;;;;12.77;2.77;;;;;;;10.98;84.82;99337.91;4229874;27;20601;-84
2024/01/25 05:14:29;;;;;;;14.13;2.90;;;;;;;10.98;85.64;99346.59;4246645;27;20613;-83
2024/01/25 05:16:52;;;;;;;17.53;3.40;;;;;;;10.99;84.38;99336.97;4258636;27;20633;-83
2024/01/25 05:19:16;;;;;;;17.43;3.40;;;;;;;11.00;84.06;99343.91;4250721;27;20969;-84
2024/01/25 05:21:39;;;;;;;11.23;3.63;;;;;;;10.97;85.73;99344.03;4251486;27;20732;-84
2024/01/25 05:24:02;;;;;;;11.83;3.97;;;;;;;10.98;85.45;99348.34;4243201;27;21261;-84
2024/01/25 05:26:09;;;;;;;12.23;3.43;;;;;;;10.98;85.27;99351.81;4251194;27;21030;-84
2024/01/25 05:28:33;;;;;;;11.93;3.40;;;;;;;10.99;84.99;99345.66;4255596;27;21183;-84
2024/01/25 05:30:57;;;;;;;16.77;3.50;;;;;;;10.97;84.76;99347.50;4233034;27;21275;-83
2024/01/25 05:33:20;;;;;;;14.47;3.80;;;;;;;10.99;84.57;99343.06;4244851;27;20636;-83
2024/01/25 05:35:43;;;;;;;11.33;3.60;;;;;;;10.97;83.77;99347.50;4254390;27;21233;-83
2024/01/25 05:38:06;;;;;;;12.27;3.30;;;;;;;10.98;84.29;99350.97;4239397;27;21053;-84
2024/01/25 05:40:32;;;;;;;17.20;4.00;;;;;;;10.95;85.02;99354.56;4240137;27;20601;-84
2024/01/25 05:42:55;;;;;;;15.63;3.80;;;;;;;10.96;84.31;99360.63;4254045;27;20615;-83
2024/01/25 05:45:21;;;;;;;17.37;3.90;;;;;;;10.93;85.44;99361.63;4256500;27;20723;-84
2024/01/25 05:47:44;;;;;;;16.90;3.70;;;;;;;10.92;85.11;99362.53;4231524;27;20606;-84
2024/01/25 05:50:08;;;;;;;14.40;3.93;;;;;;;10.94;84.49;99370.31;4254040;27;21005;-84
2024/01/25 05:52:31;;;;;;;9.77;3.10;;;;;;;10.95;84.12;99367.63;4256072;27;20711;-84
2024/01/25 05:54:55;;;;;;;16.40;3.50;;;;;;;10.96;85.46;99381.50;4226696;27;20619;-84
2024/01/25 05:57:18;;;;;;;14.83;4.80;;;;;;;10.97;84.24;99380.59;4255276;27;20636;-84
2024/01/25 05:59:42;;;;;;;11.47;2.90;;;;;;;10.96;84.49;99377.16;4255156;27;20677;-84
2024/01/25 06:02:07;;;;;;;9.80;3.27;;;;;;;10.96;84.20;99377.16;4243236;27;20617;-84
2024/01/25 06:04:31;;;;;;;16.97;4.17;;;;;;;10.94;85.13;99373.75;4257815;27;21081;-84
2024/01/25 06:06:54;;;;;;;11.33;3.00;;;;;;;10.92;83.72;99370.38;4238208;27;20606;-84
2024/01/25 06:09:15;;;;;;;17.83;3.33;;;;;;;10.90;83.62;99369.63;4239763;27;20626;-84
2024/01/25 06:11:43;;;;;;;10.90;3.47;;;;;;;10.88;85.25;99368.00;4226421;27;21071;-84
2024/01/25 06:14:06;;;;;;;12.73;3.70;;;;;;;10.85;84.39;99360.31;4239083;27;20609;-84
2024/01/25 06:16:30;;;;;;;15.43;3.63;;;;;;;10.83;83.38;99362.16;4257582;27;20985;-84
2024/01/25 06:18:54;;;;;;;12.40;4.40;;;;;;;10.80;84.90;99353.66;4239659;27;20617;-84
2024/01/25 06:21:18;;;;;;;19.10;3.60;;;;;;;10.77;84.51;99359.84;4236012;27;21193;-84
2024/01/25 06:23:41;;;;;;;12.83;3.40;;;;;;;10.75;84.54;99356.47;4250347;27;20713;-83
2024/01/25 06:26:05;;;;;;;15.10;3.73;;;;;;;10.74;84.43;99370.44;4236361;27;20593;-84
2024/01/25 06:28:28;;;;;;;12.10;3.80;;;;;;;10.76;84.20;99370.38;4242508;27;21213;-83
2024/01/25 06:30:51;;;;;;;11.57;3.13;;;;;;;10.75;84.20;99366.06;4251788;27;20641;-84
2024/01/25 06:33:14;;;;;;;13.60;3.13;;;;;;;10.72;84.08;99371.41;4242323;27;20736;-83
2024/01/25 06:35:39;;;;;;;18.17;3.63;;;;;;;10.65;84.69;99370.88;4255245;27;20621;-84
2024/01/25 06:38:03;;;;;;;13.90;3.30;;;;;;;10.58;83.66;99379.91;4232583;27;20619;-84
2024/01/25 06:40:26;;;;;;;13.90;3.40;;;;;;;10.58;83.74;99390.34;4237583;27;20609;-84
2024/01/25 06:42:49;;;;;;;10.47;3.17;;;;;;;10.57;84.42;99396.50;4253854;27;21283;-84
2024/01/25 06:45:13;;;;;;;14.20;3.23;;;;;;;10.57;84.57;99401.72;4238194;27;21206;-84
2024/01/25 06:47:36;;;;;;;15.80;3.93;;;;;;;10.58;83.51;99406.00;4238925;27;20614;-84
2024/01/25 06:49:59;;;;;;;14.03;3.57;;;;;;;10.60;83.91;99414.63;4254481;27;20967;-84
2024/01/25 06:52:24;;;;;;;13.50;3.67;;;;;;;10.61;83.27;99407.63;4252089;27;20619;-84
2024/01/25 06:54:49;;;;;;;11.80;3.10;;;;;;;10.56;83.37;99396.56;4257041;27;21063;-83
2024/01/25 06:57:14;;;;;;;10.67;3.17;;;;;;;10.51;83.43;99394.19;4262321;27;20613;-84
2024/01/25 06:59:37;;;;;;;17.27;5.00;;;;;;;10.47;83.68;99403.06;4234278;27;20637;-83
2024/01/25 07:02:02;;;;;;;16.50;3.77;;;;;;;10.49;84.23;99402.97;4238373;27;20654;-84
2024/01/25 07:04:26;;;;;;;18.23;4.17;;;;;;;10.49;84.80;99401.25;4240563;27;20621;-83
2024/01/25 07:06:49;;;;;;;11.27;3.20;;;;;;;10.51;84.68;99406.38;4255085;27;20628;-84
2024/01/25 07:09:14;;;;;;;16.20;4.03;;;;;;;10.52;84.68;99410.66;4240248;27;21043;-85
2024/01/25 07:11:38;;;;;;;14.70;3.27;;;;;;;10.51;84.32;99409.81;4238572;27;20643;-87
2024/01/25 07:14:01;;;;;;;14.40;2.80;;;;;;;10.50;84.17;99413.34;4227848;27;20607;-86
2024/01/25 07:16:24;;;;;;;14.47;3.60;;;;;;;10.51;83.37;99415.03;4226330;27;21170;-87
2024/01/25 07:18:47;;;;;;;18.47;6.50;;;;;;;10.52;84.23;99410.66;4264462;27;20645;-87
2024/01/25 07:21:10;;;;;;;32.57;10.17;;;;;;;10.53;84.11;99420.19;4226803;27;21093;-87
2024/01/25 07:23:34;;;;;;;20.83;6.63;;;;;;;10.56;84.23;99418.28;4224369;27;20668;-87
2024/01/25 07:25:58;;;;;;;22.03;6.80;;;;;;;10.58;83.64;99426.03;4237708;27;21165;-87
2024/01/25 07:28:21;;;;;;;17.27;5.93;;;;;;;10.55;84.11;99424.41;4241280;27;21157;-88
2024/01/25 07:30:47;;;;;;;13.43;4.50;;;;;;;10.56;83.54;99435.69;4253645;27;20649;-85
2024/01/25 07:33:10;;;;;;;18.67;6.17;;;;;;;10.55;84.25;99431.38;4226889;27;20720;-85
2024/01/25 07:35:33;;;;;;;32.57;17.40;;;;;;;10.53;83.90;99428.00;4250703;27;20755;-86
2024/01/25 07:37:57;;;;;;;15.27;7.23;;;;;;;10.51;83.63;99435.06;4240890;27;20609;-87
2024/01/25 07:40:20;;;;;;;18.77;5.70;;;;;;;10.49;84.75;99427.31;4225456;27;20613;-85
2024/01/25 07:42:45;;;;;;;18.13;5.47;;;;;;;10.50;83.87;99422.94;4240564;27;20700;-84
2024/01/25 07:45:09;;;;;;;53.20;19.57;;;;;;;10.51;84.20;99425.47;4236123;27;20644;-87
2024/01/25 07:47:33;;;;;;;37.67;13.90;;;;;;;10.54;85.15;99424.47;4250117;27;20620;-87
2024/01/25 07:49:56;;;;;;;68.43;28.83;;;;;;;10.59;85.09;99432.94;4237987;27;20620;-87
2024/01/25 07:52:19;;;;;;;47.03;18.43;;;;;;;10.62;84.71;99432.81;4237234;27;21006;-87
2024/01/25 07:54:44;;;;;;;28.30;11.20;;;;;;;10.62;84.90;99441.47;4239767;27;21307;-87
2024/01/25 07:57:07;;;;;;;35.67;16.17;;;;;;;10.66;84.05;99439.53;4225223;27;20730;-86
2024/01/25 07:59:32;;;;;;;34.60;14.57;;;;;;;10.65;85.45;99430.88;4236252;27;21180;-86
2024/01/25 08:01:55;;;;;;;33.67;12.50;;;;;;;10.69;84.84;99434.19;4223615;27;21155;-89
2024/01/25 08:04:18;;;;;;;28.73;10.77;;;;;;;10.72;84.39;99428.81;4253157;27;21134;-86
2024/01/25 08:06:41;;;;;;;25.17;15.03;;;;;;;10.75;84.44;99428.69;4222464;27;20618;-86
2024/01/25 08:09:05;;;;;;;22.07;10.33;;;;;;;10.76;85.01;99426.00;4251274;27;20644;-86
2024/01/25 08:11:28;;;;;;;32.60;13.97;;;;;;;10.80;83.61;99431.94;4233473;27;20731;-84
2024/01/25 08:13:51;;;;;;;29.87;12.10;;;;;;;10.83;84.45;99449.13;4247625;27;20601;-84
2024/01/25 08:16:19;;;;;;;20.63;7.70;;;;;;;10.85;83.83;99443.81;4236453;27;20621;-83
2024/01/25 08:18:43;;;;;;;23.23;8.80;;;;;;;10.89;83.40;99451.44;4230723;27;20648;-84
2024/01/25 08:21:08;;;;;;;22.33;8.07;;;;;;;10.95;84.82;99443.31;4239063;27;20703;-83
2024/01/25 08:23:31;;;;;;;16.60;7.33;;;;;;;10.99;84.38;99444.88;4226809;27;20617;-83
2024/01/25 08:25:55;;;;;;;17.97;5.77;;;;;;;10.98;86.22;99448.38;4223700;27;20712;-84
2024/01/25 08:28:18;;;;;;;18.97;6.17;;;;;;;11.00;85.71;99451.75;4237191;27;20613;-84
2024/01/25 08:30:41;;;;;;;22.47;6.30;;;;;;;11.04;84.09;99450.69;4223595;27;21174;-83
2024/01/25 08:33:05;;;;;;;17.90;4.30;;;;;;;11.10;84.69;99450.41;4239530;27;20623;-84
2024/01/25 08:35:30;;;;;;;17.73;5.40;;;;;;;11.08;84.99;99449.66;4248959;27;20630;-83
2024/01/25 08:37:53;;;;;;;11.73;4.30;;;;;;;11.11;85.55;99453.84;4222095;27;20625;-87
2024/01/25 08:40:16;;;;;;;15.17;4.13;;;;;;;11.15;85.47;99455.41;4252486;27;20613;-85
2024/01/25 08:42:40;;;;;;;15.00;3.70;;;;;;;11.18;83.67;99466.53;4261858;27;20604;-84
2024/01/25 08:45:04;;;;;;;25.47;5.33;;;;;;;11.20;85.25;99464.72;4238834;27;20613;-84
2024/01/25 08:47:28;;;;;;;18.97;4.90;;;;;;;11.24;84.54;99476.69;4237974;27;21394;-84
2024/01/25 08:49:52;;;;;;;21.03;4.40;;;;;;;11.26;85.11;99474.88;4224281;27;20621;-84
2024/01/25 08:52:16;;;;;;;13.60;3.23;;;;;;;11.31;85.43;99472.84;4234210;27;21295;-84
2024/01/25 08:54:39;;;;;;;15.63;4.37;;;;;;;11.34;84.82;99475.31;4253232;27;20613;-84
2024/01/25 08:57:02;;;;;;;12.80;3.70;;;;;;;11.39;84.88;99473.31;4250977;27;20642;-84
2024/01/25 08:59:26;;;;;;;13.97;4.70;;;;;;;11.43;84.42;99480.94;4246303;27;20693;-84
2024/01/25 09:01:49;;;;;;;15.23;4.37;;;;;;;11.45;83.94;99486.09;4235136;27;21153;-84
2024/01/25 09:03:57;;;;;;;11.67;4.10;;;;;;;11.48;84.37;99501.63;4238161;27;20685;-84
2024/01/25 09:06:21;;;;;;;11.60;4.00;;;;;;;11.51;83.69;99496.25;4232647;27;20674;-84
2024/01/25 09:08:45;;;;;;;14.53;4.43;;;;;;;11.54;84.10;99498.72;4253551;27;21176;-84
2024/01/25 09:11:08;;;;;;;14.30;4.10;;;;;;;11.58;84.90;99500.28;4219615;27;20611;-84
2024/01/25 09:13:32;;;;;;;15.07;4.77;;;;;;;11.62;84.60;99499.19;4255489;27;20604;-84
2024/01/25 09:16:07;;;;;;;15.93;4.90;;;;;;;11.67;85.25;99497.19;4237258;27;20612;-84
2024/01/25 09:18:30;;;;;;;12.20;3.80;;;;;;;11.78;85.25;99499.16;4260017;27;20672;-84
2024/01/25 09:20:54;;;;;;;14.60;4.10;;;;;;;11.94;85.29;99505.31;4238208;27;20621;-82
2024/01/25 09:23:18;;;;;;;16.03;4.40;;;;;;;12.04;83.60;99503.94;4258162;27;20637;-82
2024/01/25 09:25:42;;;;;;;13.87;4.60;;;;;;;12.03;83.68;99512.69;4232654;27;20691;-85
2024/01/25 09:28:06;;;;;;;13.30;3.80;;;;;;;11.98;83.73;99508.63;4238961;27;20663;-84
2024/01/25 09:30:29;;;;;;;18.70;4.47;;;;;;;12.08;82.38;99525.53;4225412;27;20602;-85
2024/01/25 09:32:52;;;;;;;14.40;3.93;;;;;;;12.30;82.93;99532.19;4239461;27;21601;-83
2024/01/25 09:35:15;;;;;;;17.77;4.63;;;;;;;12.47;82.11;99543.44;4236963;27;20617;-83
2024/01/25 09:37:39;;;;;;;15.67;5.90;;;;;;;12.60;81.35;99541.91;4235150;27;20617;-83
2024/01/25 09:40:04;;;;;;;12.30;4.10;;;;;;;12.70;81.49;99545.69;4237271;27;20704;-82
2024/01/25 09:42:28;;;;;;;17.77;4.07;;;;;;;12.81;81.74;99541.59;4238713;27;20601;-82
2024/01/25 09:44:52;;;;;;;18.23;3.33;;;;;;;12.93;80.72;99545.31;4257665;27;20711;-82
2024/01/25 09:47:16;;;;;;;14.17;4.27;;;;;;;13.04;80.89;99537.75;4240991;27;20600;-82
2024/01/25 09:49:39;;;;;;;16.73;3.90;;;;;;;13.11;79.77;99539.94;4231707;27;20621;-82
2024/01/25 09:52:04;;;;;;;19.30;3.90;;;;;;;13.21;79.32;99538.50;4240432;27;20712;-83
2024/01/25 09:54:28;;;;;;;13.83;3.90;;;;;;;13.32;78.48;99547.44;4258096;27;20691;-83
2024/01/25 09:56:54;;;;;;;20.03;4.27;;;;;;;13.46;79.08;99542.28;4252282;27;20623;-82
2024/01/25 09:59:18;;;;;;;12.17;3.03;;;;;;;13.53;78.43;99542.75;4254709;27;20667;-84
2024/01/25 10:01:41;;;;;;;14.00;3.50;;;;;;;13.54;78.30;99539.22;4241629;27;20647;-86
2024/01/25 10:04:07;;;;;;;14.60;4.33;;;;;;;13.63;78.22;99541.31;4255339;27;21159;-85
2024/01/25 10:06:30;;;;;;;13.33;3.87;;;;;;;13.68;76.56;99545.34;4242216;27;20626;-84
2024/01/25 10:08:54;;;;;;;14.63;4.00;;;;;;;13.63;77.88;99536.06;4252373;27;20638;-84
2024/01/25 10:11:17;;;;;;;18.27;4.40;;;;;;;13.77;77.72;99540.44;4246319;27;20619;-85
2024/01/25 10:13:45;;;;;;;16.43;4.40;;;;;;;13.88;77.11;99535.41;4255988;27;21096;-83
2024/01/25 10:16:12;;;;;;;16.87;4.10;;;;;;;13.88;75.93;99532.78;4244936;27;21247;-83
2024/01/25 10:18:35;;;;;;;13.50;3.80;;;;;;;13.91;75.96;99522.09;4246027;27;20703;-83
2024/01/25 10:21:00;;;;;;;16.30;4.53;;;;;;;13.69;75.89;99528.69;4259718;27;21316;-83
2024/01/25 10:23:25;;;;;;;18.20;3.63;;;;;;;13.41;75.84;99528.59;4257633;27;20618;-83
2024/01/25 10:25:49;;;;;;;10.80;3.27;;;;;;;13.28;75.86;99527.59;4255029;27;20617;-83
2024/01/25 10:28:13;;;;;;;13.70;3.27;;;;;;;13.22;75.69;99527.09;4238585;27;21172;-80
2024/01/25 10:30:38;;;;;;;17.47;3.67;;;;;;;13.14;76.68;99525.81;4243714;27;20957;-80
2024/01/25 10:33:02;;;;;;;12.07;3.73;;;;;;;13.32;76.71;99520.38;4258531;27;20735;-83
2024/01/25 10:35:26;;;;;;;19.77;4.43;;;;;;;13.41;76.46;99518.09;4243981;27;20622;-83
2024/01/25 10:37:50;;;;;;;9.77;3.33;;;;;;;13.51;77.40;99518.41;4244940;27;20641;-83
2024/01/25 10:40:14;;;;;;;10.73;3.60;;;;;;;13.70;76.53;99525.97;4236113;27;20629;-85
2024/01/25 10:42:37;;;;;;;20.43;6.40;;;;;;;13.67;75.36;99512.22;4251193;27;20599;-84
2024/01/25 10:45:01;;;;;;;11.23;3.73;;;;;;;13.62;74.94;99516.03;4239376;27;20608;-83
2024/01/25 10:47:27;;;;;;;21.70;4.90;;;;;;;13.48;73.79;99516.81;4254918;27;21414;-84
2024/01/25 10:49:50;;;;;;;15.70;4.23;;;;;;;13.35;74.57;99501.88;4243446;27;20619;-83
2024/01/25 10:52:14;;;;;;;11.03;3.40;;;;;;;13.23;73.40;99498.19;4260243;27;20621;-83
2024/01/25 10:54:37;;;;;;;13.40;3.83;;;;;;;13.21;73.86;99499.19;4229719;27;20610;-83
2024/01/25 10:57:02;;;;;;;15.03;3.90;;;;;;;13.17;73.67;99489.84;4250916;27;20613;-84
2024/01/25 10:59:27;;;;;;;13.38;3.63;;;;;;;13.19;74.02;99487.97;4240353;27;21235;-84
2024/01/25 11:01:50;;;;;;;11.93;4.57;;;;;;;13.05;73.04;99476.56;4252828;27;20205;-83
2024/01/25 11:04:16;;;;;;;16.57;3.27;;;;;;;13.00;73.57;99481.22;4256959;27;20647;-84
2024/01/25 11:06:40;;;;;;;16.97;4.20;;;;;;;13.03;74.23;99465.31;4240485;27;20613;-83